createdAt,value
2023-04-21T00:00:20.626Z,66.50
2023-04-21T00:02:51.914Z,44.30
2023-04-21T00:05:26.005Z,45.70
2023-04-21T00:07:59.265Z,61.63
2023-04-21T00:10:30.256Z,55.70
2023-04-21T00:12:59.772Z,63.60
2023-04-21T00:15:27.951Z,56.50
2023-04-21T00:17:56.180Z,52.23
2023-04-21T00:20:26.760Z,52.47
2023-04-21T00:22:54.951Z,52.10
2023-04-21T00:25:23.742Z,54.83
2023-04-21T00:27:51.907Z,60.90
2023-04-21T00:30:21.536Z,64.27
2023-04-21T00:33:00.374Z,60.20
2023-04-21T00:35:30.868Z,55.77
2023-04-21T00:38:02.123Z,64.53
2023-04-21T00:40:32.536Z,55.97
2023-04-21T00:43:09.329Z,70.70
2023-04-21T00:45:42.216Z,60.30
2023-04-21T00:48:15.268Z,56.00
2023-04-21T00:50:44.353Z,59.27
2023-04-21T00:53:13.570Z,70.90
2023-04-21T00:55:44.544Z,61.93
2023-04-21T00:58:15.631Z,57.80
2023-04-21T01:00:48.894Z,61.40
2023-04-21T01:03:21.195Z,72.60
2023-04-21T01:05:52.964Z,57.50
2023-04-21T01:08:21.068Z,67.57
2023-04-21T01:10:50.629Z,73.97
2023-04-21T01:13:22.020Z,70.33
2023-04-21T01:15:53.351Z,63.10
2023-04-21T01:18:22.133Z,76.00
2023-04-21T01:20:50.276Z,63.43
2023-04-21T01:23:21.193Z,73.27
2023-04-21T01:25:50.525Z,68.27
2023-04-21T01:28:23.758Z,78.80
2023-04-21T01:30:51.990Z,82.53
2023-04-21T01:33:23.655Z,79.17
2023-04-21T01:35:55.346Z,77.40
2023-04-21T01:38:27.396Z,76.17
2023-04-21T01:40:58.378Z,79.87
2023-04-21T01:43:29.944Z,72.77
2023-04-21T01:46:00.280Z,81.97
2023-04-21T01:48:31.533Z,75.53
2023-04-21T01:51:00.572Z,67.93
2023-04-21T01:53:31.343Z,75.60
2023-04-21T01:55:59.417Z,81.20
2023-04-21T01:58:27.558Z,74.73
2023-04-21T02:00:58.785Z,58.17
2023-04-21T02:03:28.033Z,54.03
2023-04-21T02:05:57.027Z,51.60
2023-04-21T02:08:28.318Z,64.40
2023-04-21T02:10:58.012Z,57.17
2023-04-21T02:13:28.306Z,55.33
2023-04-21T02:16:06.148Z,61.40
2023-04-21T02:18:41.411Z,55.27
2023-04-21T02:21:11.466Z,50.97
2023-04-21T02:23:42.023Z,57.37
2023-04-21T02:26:18.198Z,68.70
2023-04-21T02:28:49.636Z,67.87
2023-04-21T02:31:20.539Z,67.13
2023-04-21T02:33:51.945Z,67.20
2023-04-21T02:36:24.257Z,68.80
2023-04-21T02:38:52.498Z,77.90
2023-04-21T02:41:26.535Z,80.57
2023-04-21T02:43:55.036Z,69.40
2023-04-21T02:46:27.047Z,93.30
2023-04-21T02:48:56.446Z,86.73
2023-04-21T02:51:24.861Z,61.03
2023-04-21T02:53:52.989Z,62.90
2023-04-21T02:56:22.615Z,76.37
2023-04-21T02:58:50.723Z,80.23
2023-04-21T03:01:19.027Z,95.07
2023-04-21T03:03:55.516Z,76.63
2023-04-21T03:06:28.882Z,73.00
2023-04-21T03:08:59.537Z,74.13
2023-04-21T03:11:32.397Z,90.57
2023-04-21T03:14:02.417Z,91.33
2023-04-21T03:16:30.648Z,91.00
2023-04-21T03:19:03.319Z,80.47
2023-04-21T03:21:31.617Z,97.47
2023-04-21T03:24:06.640Z,87.03
2023-04-21T03:26:36.089Z,62.97
2023-04-21T03:29:14.002Z,68.03
2023-04-21T03:31:44.322Z,99.27
2023-04-21T03:34:12.471Z,62.57
2023-04-21T03:36:44.019Z,99.30
2023-04-21T03:39:20.441Z,68.03
2023-04-21T03:41:51.835Z,71.60
2023-04-21T03:44:19.872Z,82.60
2023-04-21T03:46:47.980Z,76.03
2023-04-21T03:49:16.111Z,95.93
2023-04-21T03:51:45.840Z,81.27
2023-04-21T03:54:14.160Z,84.23
2023-04-21T03:56:42.309Z,78.00
2023-04-21T03:59:15.704Z,79.57
2023-04-21T04:01:46.246Z,96.80
2023-04-21T04:04:17.595Z,91.53
2023-04-21T04:06:48.351Z,79.60
2023-04-21T04:09:16.434Z,83.90
2023-04-21T04:11:44.585Z,89.87
2023-04-21T04:14:15.272Z,111.10
2023-04-21T04:16:46.367Z,101.37
2023-04-21T04:19:17.869Z,110.60
2023-04-21T04:21:49.270Z,122.00
2023-04-21T04:24:19.460Z,126.20
2023-04-21T04:26:51.784Z,116.67
2023-04-21T04:29:22.133Z,114.07
2023-04-21T04:31:51.213Z,113.60
2023-04-21T04:34:20.905Z,119.17
2023-04-21T04:36:51.784Z,119.33
2023-04-21T04:39:20.060Z,144.57
2023-04-21T04:41:48.736Z,129.10
2023-04-21T04:44:21.996Z,126.37
2023-04-21T04:46:54.842Z,109.73
2023-04-21T04:49:24.143Z,165.50
2023-04-21T04:51:52.508Z,116.43
2023-04-21T04:54:20.845Z,136.27
2023-04-21T04:56:49.384Z,149.17
2023-04-21T04:59:17.451Z,143.80
2023-04-21T05:01:55.188Z,159.33
2023-04-21T05:04:23.897Z,114.63
2023-04-21T05:06:57.066Z,134.43
2023-04-21T05:09:29.467Z,137.57
2023-04-21T05:12:00.282Z,138.73
2023-04-21T05:14:28.768Z,115.07
2023-04-21T05:16:59.649Z,137.17
2023-04-21T05:19:29.753Z,136.87
2023-04-21T05:22:01.671Z,127.17
2023-04-21T05:24:29.763Z,129.40
2023-04-21T05:27:03.004Z,128.27
2023-04-21T05:29:31.750Z,138.43
2023-04-21T05:32:02.844Z,132.17
2023-04-21T05:34:35.219Z,136.97
2023-04-21T05:37:03.468Z,128.43
2023-04-21T05:39:34.367Z,150.50
2023-04-21T05:42:03.140Z,143.93
2023-04-21T05:44:34.199Z,129.70
2023-04-21T05:47:05.144Z,138.43
2023-04-21T05:49:33.398Z,132.80
2023-04-21T05:52:01.594Z,127.27
2023-04-21T05:54:30.008Z,135.80
2023-04-21T05:56:58.096Z,131.53
2023-04-21T05:59:29.219Z,132.33
2023-04-21T06:01:57.422Z,138.77
2023-04-21T06:04:27.362Z,119.77
2023-04-21T06:06:58.153Z,137.13
2023-04-21T06:09:26.282Z,133.60
2023-04-21T06:11:57.699Z,122.33
2023-04-21T06:14:25.851Z,122.87
2023-04-21T06:16:57.081Z,119.40
2023-04-21T06:19:27.977Z,116.43
2023-04-21T06:21:57.687Z,114.43
2023-04-21T06:24:26.137Z,108.90
2023-04-21T06:26:54.519Z,115.53
2023-04-21T06:29:25.720Z,104.67
2023-04-21T06:31:56.891Z,106.47
2023-04-21T06:34:27.782Z,102.97
2023-04-21T06:37:00.671Z,125.37
2023-04-21T06:39:29.072Z,140.50
2023-04-21T06:41:58.173Z,93.93
2023-04-21T06:44:32.847Z,97.63
2023-04-21T06:47:01.057Z,92.40
2023-04-21T06:49:34.163Z,94.47
2023-04-21T06:52:02.357Z,91.53
2023-04-21T06:54:39.655Z,89.80
2023-04-21T06:57:07.769Z,88.80
2023-04-21T06:59:36.083Z,86.90
2023-04-21T07:02:04.291Z,81.50
2023-04-21T07:04:37.004Z,87.33
2023-04-21T07:07:06.979Z,84.77
2023-04-21T07:09:35.090Z,87.43
2023-04-21T07:12:03.179Z,76.23
2023-04-21T07:14:31.248Z,81.30
2023-04-21T07:17:01.737Z,81.17
2023-04-21T07:19:30.068Z,81.37
2023-04-21T07:22:01.083Z,78.40
2023-04-21T07:24:29.394Z,77.67
2023-04-21T07:26:57.462Z,83.47
2023-04-21T07:29:25.683Z,71.53
2023-04-21T07:31:54.564Z,79.27
2023-04-21T07:34:22.802Z,76.67
2023-04-21T07:36:56.891Z,79.70
2023-04-21T07:39:26.447Z,70.30
2023-04-21T07:41:55.836Z,70.10
2023-04-21T07:44:24.036Z,66.47
2023-04-21T07:46:52.108Z,66.63
2023-04-21T07:49:20.510Z,67.07
2023-04-21T07:51:51.936Z,68.57
2023-04-21T07:54:20.032Z,68.50
2023-04-21T07:56:49.530Z,65.00
2023-04-21T07:59:17.877Z,62.70
2023-04-21T08:01:51.674Z,57.43
2023-04-21T08:04:20.239Z,57.17
2023-04-21T08:06:51.912Z,56.97
2023-04-21T08:09:20.523Z,56.73
2023-04-21T08:11:52.837Z,51.40
2023-04-21T08:14:22.355Z,51.10
2023-04-21T08:16:50.945Z,44.30
2023-04-21T08:19:20.625Z,41.53
2023-04-21T08:21:53.946Z,40.33
2023-04-21T08:24:22.376Z,40.27
2023-04-21T08:26:52.311Z,36.53
2023-04-21T08:29:20.381Z,39.17
2023-04-21T08:31:48.572Z,42.50
2023-04-21T08:34:16.890Z,37.70
2023-04-21T08:36:46.963Z,36.90
2023-04-21T08:39:16.267Z,33.83
2023-04-21T08:41:45.401Z,33.13
2023-04-21T08:44:15.898Z,32.30
2023-04-21T08:46:46.153Z,33.63
2023-04-21T08:49:18.372Z,29.53
2023-04-21T08:51:47.438Z,31.63
2023-04-21T08:54:15.463Z,32.43
2023-04-21T08:56:43.600Z,30.90
2023-04-21T08:59:11.965Z,29.83
2023-04-21T09:02:13.745Z,32.23
2023-04-21T09:04:42.368Z,28.53
2023-04-21T09:07:11.334Z,27.67
2023-04-21T09:09:54.051Z,29.00
2023-04-21T09:12:22.511Z,27.20
2023-04-21T09:14:51.433Z,28.80
2023-04-21T09:17:23.215Z,32.63
2023-04-21T09:19:51.462Z,29.57
2023-04-21T09:22:20.544Z,29.67
2023-04-21T09:24:57.890Z,28.83
2023-04-21T09:27:26.011Z,29.27
2023-04-21T09:29:54.113Z,31.80
2023-04-21T09:32:23.723Z,29.80
2023-04-21T09:34:51.868Z,27.20
2023-04-21T09:37:24.282Z,29.40
2023-04-21T09:40:03.382Z,28.07
2023-04-21T09:42:37.804Z,29.90
2023-04-21T09:45:32.484Z,28.70
2023-04-21T09:48:03.626Z,28.40
2023-04-21T09:53:07.214Z,28.53
2023-04-21T09:55:36.281Z,26.80
2023-04-21T09:58:06.892Z,23.83
2023-04-21T10:00:39.912Z,21.00
2023-04-21T10:03:12.123Z,22.80
2023-04-21T10:05:42.717Z,20.90
2023-04-21T10:08:12.714Z,21.80
2023-04-21T10:10:41.450Z,23.40
2023-04-21T10:13:16.684Z,22.27
2023-04-21T10:15:45.183Z,24.37
2023-04-21T10:18:25.221Z,23.70
2023-04-21T10:20:55.400Z,23.90
2023-04-21T10:23:32.518Z,23.37
2023-04-21T10:26:13.413Z,21.60
2023-04-21T10:28:53.107Z,25.43
2023-04-21T10:31:31.918Z,22.00
2023-04-21T10:34:30.183Z,22.83
2023-04-21T10:37:20.194Z,22.37
2023-04-21T10:39:55.805Z,23.43
2023-04-21T10:42:37.359Z,22.27
2023-04-21T10:45:13.192Z,21.17
2023-04-21T10:47:49.445Z,22.03
2023-04-21T10:50:23.836Z,20.17
2023-04-21T10:52:59.315Z,20.60
2023-04-21T10:55:30.153Z,20.57
2023-04-21T10:57:59.266Z,21.70
2023-04-21T11:00:27.513Z,21.97
2023-04-21T11:02:58.033Z,21.97
2023-04-21T11:05:38.301Z,20.33
2023-04-21T11:08:12.825Z,20.07
2023-04-21T11:10:54.470Z,22.77
2023-04-21T11:13:24.519Z,21.30
2023-04-21T11:16:05.956Z,24.23
2023-04-21T11:18:44.893Z,19.40
2023-04-21T11:21:21.601Z,20.47
2023-04-21T11:23:52.272Z,19.40
2023-04-21T11:26:31.455Z,19.60
2023-04-21T11:29:03.092Z,21.03
2023-04-21T11:31:31.759Z,23.00
2023-04-21T11:34:00.685Z,16.50
2023-04-21T11:36:30.444Z,18.13
2023-04-21T11:38:58.612Z,16.30
2023-04-21T11:41:27.182Z,17.27
2023-04-21T11:43:55.599Z,17.13
2023-04-21T11:46:26.688Z,17.17
2023-04-21T11:49:02.490Z,17.57
2023-04-21T11:51:36.767Z,17.50
2023-04-21T11:54:07.970Z,19.03
2023-04-21T11:56:38.031Z,21.93
2023-04-21T11:59:09.376Z,20.30
2023-04-21T12:01:44.966Z,21.67
2023-04-21T12:04:17.137Z,23.17
2023-04-21T12:06:48.822Z,20.97
2023-04-21T12:09:22.158Z,20.07
2023-04-21T12:11:52.198Z,20.10
2023-04-21T12:14:23.015Z,19.57
2023-04-21T12:16:53.298Z,18.13
2023-04-21T12:19:26.518Z,18.30
2023-04-21T12:21:57.308Z,19.07
2023-04-21T12:24:26.006Z,17.80
2023-04-21T12:26:54.667Z,19.77
2023-04-21T12:29:23.020Z,16.67
2023-04-21T12:31:51.304Z,16.50
2023-04-21T12:34:19.586Z,16.53
2023-04-21T12:36:47.822Z,15.13
2023-04-21T12:39:20.464Z,18.60
2023-04-21T12:41:48.894Z,19.63
2023-04-21T12:44:17.013Z,19.70
2023-04-21T12:46:45.166Z,19.97
2023-04-21T12:49:14.297Z,22.37
2023-04-21T12:51:45.409Z,22.40
2023-04-21T12:54:13.798Z,24.73
2023-04-21T12:56:43.875Z,26.30
2023-04-21T12:59:12.688Z,27.13
2023-04-21T13:01:42.679Z,27.70
2023-04-21T13:04:11.227Z,27.07
2023-04-21T13:06:40.571Z,24.17
2023-04-21T13:09:08.876Z,22.97
2023-04-21T13:11:37.082Z,23.87
2023-04-21T13:14:06.747Z,22.30
2023-04-21T13:16:34.939Z,20.93
2023-04-21T13:19:04.149Z,20.50
2023-04-21T13:21:32.706Z,23.03
2023-04-21T13:24:02.532Z,24.37
2023-04-21T13:26:33.274Z,24.10
2023-04-21T13:29:02.588Z,23.00
2023-04-21T13:31:32.412Z,21.83
2023-04-21T13:34:02.214Z,25.30
2023-04-21T13:36:31.342Z,25.70
2023-04-21T13:39:01.636Z,26.60
2023-04-21T13:41:30.119Z,28.90
2023-04-21T13:43:58.208Z,29.93
2023-04-21T13:46:26.459Z,30.57
2023-04-21T13:48:56.638Z,31.30
2023-04-21T13:51:24.905Z,30.43
2023-04-21T13:53:52.998Z,27.30
2023-04-21T13:56:21.040Z,28.20
2023-04-21T13:58:50.065Z,27.60
2023-04-21T14:01:20.672Z,28.00
2023-04-21T14:03:49.884Z,26.67
2023-04-21T14:06:19.618Z,29.10
2023-04-21T14:08:47.767Z,28.50
2023-04-21T14:11:16.002Z,27.47
2023-04-21T14:13:55.996Z,29.70
2023-04-21T14:16:32.599Z,28.43
2023-04-21T14:19:00.836Z,28.93
2023-04-21T14:21:30.987Z,30.53
2023-04-21T14:23:59.314Z,30.80
2023-04-21T14:26:27.712Z,32.53
2023-04-21T14:28:56.428Z,30.67
2023-04-21T14:31:30.159Z,32.30
2023-04-21T14:33:58.234Z,30.00
2023-04-21T14:36:27.286Z,30.47
2023-04-21T14:38:57.016Z,30.97
2023-04-21T14:41:25.688Z,30.47
2023-04-21T14:43:56.516Z,31.30
2023-04-21T14:46:24.995Z,33.47
2023-04-21T14:48:53.315Z,31.57
2023-04-21T14:51:21.854Z,29.10
2023-04-21T14:53:50.026Z,29.40
2023-04-21T14:56:19.774Z,35.73
2023-04-21T14:58:47.938Z,32.53
2023-04-21T15:01:16.228Z,31.77
2023-04-21T15:03:44.673Z,36.50
2023-04-21T15:06:12.890Z,35.53
2023-04-21T15:08:41.147Z,33.90
2023-04-21T15:11:09.368Z,37.10
2023-04-21T15:13:39.201Z,33.67
2023-04-21T15:16:07.875Z,34.13
2023-04-21T15:18:36.053Z,35.70
2023-04-21T15:21:04.527Z,37.27
2023-04-21T15:23:33.783Z,34.80
2023-04-21T15:26:02.012Z,36.27
2023-04-21T15:28:30.148Z,34.30
2023-04-21T15:30:59.625Z,35.00
2023-04-21T15:33:27.807Z,32.77
2023-04-21T15:35:55.954Z,35.93
2023-04-21T15:38:24.090Z,36.27
2023-04-21T15:41:00.760Z,34.70
2023-04-21T15:43:30.374Z,38.00
2023-04-21T15:45:59.915Z,39.50
2023-04-21T15:48:28.098Z,37.70
2023-04-21T15:50:57.328Z,36.87
2023-04-21T15:53:25.762Z,38.20
2023-04-21T15:55:53.901Z,41.30
2023-04-21T15:58:22.408Z,38.93
2023-04-21T16:00:50.772Z,41.07
2023-04-21T16:03:21.412Z,39.40
2023-04-21T16:05:49.847Z,37.67
2023-04-21T16:08:18.084Z,34.47
2023-04-21T16:10:46.419Z,34.90
2023-04-21T16:13:14.612Z,35.00
2023-04-21T16:15:42.850Z,34.37
2023-04-21T16:18:11.481Z,30.67
2023-04-21T16:20:41.652Z,32.90
2023-04-21T16:23:10.424Z,30.10
2023-04-21T16:25:38.744Z,29.10
2023-04-21T16:28:09.182Z,30.20
2023-04-21T16:30:38.542Z,29.90
2023-04-21T16:33:06.689Z,30.10
2023-04-21T16:35:35.013Z,26.70
2023-04-21T16:38:04.800Z,30.80
2023-04-21T16:40:33.157Z,25.40
2023-04-21T16:43:01.307Z,28.60
2023-04-21T16:45:31.449Z,27.83
2023-04-21T16:47:59.742Z,28.10
2023-04-21T16:50:30.865Z,26.37
2023-04-21T16:52:58.979Z,26.97
2023-04-21T16:55:29.320Z,28.77
2023-04-21T16:57:57.424Z,30.50
2023-04-21T17:00:25.727Z,27.53
2023-04-21T17:02:54.080Z,23.60
2023-04-21T17:05:23.193Z,22.70
2023-04-21T17:07:51.834Z,24.50
2023-04-21T17:10:20.264Z,21.83
2023-04-21T17:12:49.727Z,24.50
2023-04-21T17:15:18.001Z,22.03
2023-04-21T17:17:47.193Z,26.47
2023-04-21T17:20:16.113Z,23.57
2023-04-21T17:22:44.428Z,22.07
2023-04-21T17:25:12.860Z,21.77
2023-04-21T17:27:41.602Z,24.20
2023-04-21T17:30:12.876Z,24.23
2023-04-21T17:32:41.573Z,17.00
2023-04-21T17:35:10.623Z,11.73
2023-04-21T17:37:38.800Z,15.30
2023-04-21T17:40:09.656Z,20.77
2023-04-21T17:42:37.758Z,17.60
2023-04-21T17:45:08.586Z,26.63
2023-04-21T17:47:38.182Z,41.63
2023-04-21T17:50:08.929Z,28.70
2023-04-21T17:52:37.217Z,24.37
2023-04-21T17:55:06.202Z,24.43
2023-04-21T17:57:34.461Z,24.60
2023-04-21T18:00:08.530Z,24.40
2023-04-21T18:02:38.111Z,25.73
2023-04-21T18:05:06.837Z,30.00
2023-04-21T18:07:35.091Z,25.97
2023-04-21T18:10:05.321Z,15.70
2023-04-21T18:12:33.494Z,21.30
2023-04-21T18:15:01.916Z,18.53
2023-04-21T18:17:31.275Z,20.50
2023-04-21T18:20:00.862Z,17.13
2023-04-21T18:22:28.960Z,11.30
2023-04-21T18:24:59.928Z,12.13
2023-04-21T18:27:31.112Z,14.37
2023-04-21T18:29:59.150Z,14.53
2023-04-21T18:32:27.403Z,17.93
2023-04-21T18:34:57.579Z,18.57
2023-04-21T18:37:26.996Z,22.10
2023-04-21T18:39:58.047Z,26.50
2023-04-21T18:42:27.198Z,22.77
2023-04-21T18:44:57.759Z,19.60
2023-04-21T18:47:26.685Z,23.93
2023-04-21T18:49:54.861Z,24.23
2023-04-21T18:52:22.919Z,22.03
2023-04-21T18:54:53.701Z,21.37
2023-04-21T18:57:22.034Z,25.43
2023-04-21T18:59:52.517Z,29.13
2023-04-21T19:02:20.726Z,30.63
2023-04-21T19:04:49.143Z,20.10
2023-04-21T19:07:17.265Z,18.77
2023-04-21T19:09:45.387Z,26.20
2023-04-21T19:12:16.096Z,30.13
2023-04-21T19:14:47.587Z,26.70
2023-04-21T19:17:19.199Z,32.10
2023-04-21T19:19:47.392Z,24.70
2023-04-21T19:22:15.823Z,25.63
2023-04-21T19:24:44.919Z,33.73
2023-04-21T19:27:14.712Z,25.70
2023-04-21T19:29:42.816Z,39.03
2023-04-21T19:32:15.941Z,30.13
2023-04-21T19:34:44.072Z,30.60
2023-04-21T19:37:12.157Z,27.93
2023-04-21T19:39:40.360Z,30.83
2023-04-21T19:42:11.976Z,30.17
2023-04-21T19:44:41.492Z,36.03
2023-04-21T19:47:09.741Z,28.50
2023-04-21T19:49:39.844Z,26.37
2023-04-21T19:52:08.123Z,27.50
2023-04-21T19:54:36.748Z,28.73
2023-04-21T19:57:05.382Z,33.00
2023-04-21T19:59:37.368Z,28.50
2023-04-21T20:02:07.321Z,32.43
2023-04-21T20:04:35.755Z,28.93
2023-04-21T20:07:03.944Z,31.63
2023-04-21T20:09:32.100Z,32.47
2023-04-21T20:12:00.147Z,36.90
2023-04-21T20:14:28.331Z,30.13
2023-04-21T20:16:56.584Z,29.67
2023-04-21T20:19:27.074Z,29.37
2023-04-21T20:21:55.352Z,28.73
2023-04-21T20:24:24.012Z,25.00
2023-04-21T20:26:52.601Z,23.10
2023-04-21T20:29:21.551Z,25.57
2023-04-21T20:31:49.688Z,25.43
2023-04-21T20:34:20.318Z,26.63
2023-04-21T20:36:49.796Z,32.57
2023-04-21T20:39:19.017Z,33.27
2023-04-21T20:41:50.998Z,33.60
2023-04-21T20:44:24.416Z,33.20
2023-04-21T20:46:52.614Z,40.97
2023-04-21T20:49:20.739Z,37.83
2023-04-21T20:51:57.921Z,44.27
2023-04-21T20:54:26.083Z,41.07
2023-04-21T20:56:55.047Z,46.03
2023-04-21T20:59:26.036Z,53.40
2023-04-21T21:01:54.166Z,52.00
2023-04-21T21:04:22.422Z,48.17
2023-04-21T21:06:52.052Z,55.10
2023-04-21T21:09:20.690Z,65.63
2023-04-21T21:11:48.948Z,59.40
2023-04-21T21:14:17.068Z,61.13
2023-04-21T21:16:45.298Z,80.40
2023-04-21T21:19:15.010Z,69.13
2023-04-21T21:21:43.187Z,77.87
2023-04-21T21:24:12.731Z,91.30
2023-04-21T21:26:42.651Z,80.63
2023-04-21T21:29:10.995Z,87.20
2023-04-21T21:31:44.511Z,78.53
2023-04-21T21:34:12.725Z,64.90
2023-04-21T21:36:43.078Z,64.50
2023-04-21T21:39:12.665Z,67.90
2023-04-21T21:41:40.780Z,65.50
2023-04-21T21:44:09.008Z,59.10
2023-04-21T21:46:37.283Z,61.80
2023-04-21T21:49:05.409Z,60.87
2023-04-21T21:51:33.755Z,57.87
2023-04-21T21:54:01.839Z,83.40
2023-04-21T21:56:31.381Z,62.17
2023-04-21T21:58:59.839Z,59.13
2023-04-21T22:01:28.183Z,81.47
2023-04-21T22:03:56.422Z,59.27
2023-04-21T22:06:26.784Z,65.03
2023-04-21T22:08:54.997Z,57.07
2023-04-21T22:11:23.137Z,68.80
2023-04-21T22:13:52.783Z,59.37
2023-04-21T22:16:20.873Z,64.37
2023-04-21T22:18:49.245Z,57.43
2023-04-21T22:21:17.595Z,59.33
2023-04-21T22:23:45.841Z,62.97
2023-04-21T22:26:16.063Z,56.87
2023-04-21T22:28:49.866Z,80.50
2023-04-21T22:31:19.364Z,78.40
2023-04-21T22:33:47.455Z,80.20
2023-04-21T22:36:15.733Z,67.17
2023-04-21T22:38:45.658Z,70.97
2023-04-21T22:41:13.833Z,67.40
2023-04-21T22:43:42.125Z,93.13
2023-04-21T22:46:10.277Z,77.53
2023-04-21T22:48:44.829Z,70.00
2023-04-21T22:51:14.349Z,100.53
2023-04-21T22:53:42.451Z,101.17
2023-04-21T22:56:10.590Z,90.57
2023-04-21T22:58:38.761Z,88.43
2023-04-21T23:01:09.292Z,92.23
2023-04-21T23:03:41.293Z,88.90
2023-04-21T23:06:11.770Z,137.27
2023-04-21T23:08:40.084Z,101.23
2023-04-21T23:11:08.248Z,103.87
2023-04-21T23:13:39.831Z,104.27
2023-04-21T23:16:08.190Z,99.73
2023-04-21T23:18:36.523Z,103.53
2023-04-21T23:21:06.086Z,93.33
2023-04-21T23:23:34.223Z,105.83
2023-04-21T23:26:02.437Z,93.70
2023-04-21T23:28:31.776Z,122.83
2023-04-21T23:30:59.911Z,102.73
2023-04-21T23:33:28.076Z,96.77
2023-04-21T23:35:56.326Z,103.87
2023-04-21T23:38:25.963Z,95.67
2023-04-21T23:40:55.855Z,122.03
2023-04-21T23:43:24.035Z,111.50
2023-04-21T23:45:52.497Z,144.13
2023-04-21T23:48:22.794Z,147.70
2023-04-21T23:50:51.047Z,187.70
2023-04-21T23:53:26.641Z,154.13
2023-04-21T23:55:57.548Z,141.27
2023-04-21T23:58:25.770Z,102.40
